createdAt,value
2022-10-07T00:00:20.114Z,100900.51
2022-10-07T00:01:22.568Z,100905.84
2022-10-07T00:02:24.975Z,100894.31
2022-10-07T00:03:27.490Z,100894.31
2022-10-07T00:04:29.638Z,100894.31
2022-10-07T00:05:32.327Z,100890.76
2022-10-07T00:06:36.421Z,100892.50
2022-10-07T00:07:38.608Z,100898.70
2022-10-07T00:08:42.958Z,100898.70
2022-10-07T00:09:45.233Z,100893.36
2022-10-07T00:10:47.543Z,100893.36
2022-10-07T00:11:49.691Z,100892.50
2022-10-07T00:12:51.857Z,100898.70
2022-10-07T00:13:56.440Z,100894.31
2022-10-07T00:14:58.724Z,100896.98
2022-10-07T00:16:05.107Z,100896.03
2022-10-07T00:17:07.307Z,100900.51
2022-10-07T00:18:10.105Z,100897.84
2022-10-07T00:19:12.942Z,100896.98
2022-10-07T00:20:15.769Z,100904.03
2022-10-07T00:21:18.880Z,100889.84
2022-10-07T00:22:21.195Z,100896.03
2022-10-07T00:23:23.474Z,100891.65
2022-10-07T00:24:26.221Z,100894.31
2022-10-07T00:25:28.401Z,100899.65
2022-10-07T00:26:31.645Z,100900.58
2022-10-07T00:27:33.799Z,100896.98
2022-10-07T00:28:36.356Z,100904.09
2022-10-07T00:29:39.408Z,100903.17
2022-10-07T00:30:43.660Z,100904.09
2022-10-07T00:31:47.422Z,100903.17
2022-10-07T00:32:49.753Z,100900.58
2022-10-07T00:33:53.199Z,100899.65
2022-10-07T00:34:55.841Z,100902.31
2022-10-07T00:35:58.070Z,100912.09
2022-10-07T00:37:00.547Z,100915.66
2022-10-07T00:38:02.674Z,100910.32
2022-10-07T00:39:07.698Z,100909.36
2022-10-07T00:40:11.812Z,100911.17
2022-10-07T00:41:17.761Z,100915.59
2022-10-07T00:42:20.456Z,100919.11
2022-10-07T00:43:28.477Z,100908.44
2022-10-07T00:44:34.638Z,100912.03
2022-10-07T00:45:37.955Z,100916.51
2022-10-07T00:46:40.292Z,100918.32
2022-10-07T00:47:47.767Z,100918.32
2022-10-07T00:48:50.193Z,100920.10
2022-10-07T00:50:09.696Z,100924.58
2022-10-07T00:51:11.869Z,100921.05
2022-10-07T00:52:14.521Z,100921.05
2022-10-07T00:53:17.129Z,100924.64
2022-10-07T00:54:19.263Z,100923.72
2022-10-07T00:55:24.282Z,100929.05
2022-10-07T00:56:26.562Z,100931.72
2022-10-07T00:57:28.972Z,100929.91
2022-10-07T00:58:33.155Z,100923.72
2022-10-07T00:59:36.721Z,100926.39
2022-10-07T01:00:39.167Z,100929.91
2022-10-07T01:01:42.771Z,100930.84
2022-10-07T01:02:45.186Z,100932.65
2022-10-07T01:03:48.929Z,100928.17
2022-10-07T01:04:52.033Z,100934.42
2022-10-07T01:05:54.301Z,100937.98
2022-10-07T01:06:56.630Z,100940.65
2022-10-07T01:07:59.410Z,100940.65
2022-10-07T01:09:02.832Z,100942.39
2022-10-07T01:10:06.116Z,100936.17
2022-10-07T01:11:37.933Z,100943.31
2022-10-07T01:14:07.676Z,100941.00
2022-10-07T01:17:02.388Z,100941.06
2022-10-07T01:18:08.606Z,100942.42
2022-10-07T01:19:21.410Z,100941.57
2022-10-07T01:20:54.286Z,100946.05
2022-10-07T01:22:12.534Z,100945.16
2022-10-07T01:23:39.369Z,100946.12
2022-10-07T01:24:48.173Z,100950.62
2022-10-07T01:26:06.643Z,100947.17
2022-10-07T01:27:11.586Z,100951.62
2022-10-07T01:28:16.333Z,100949.91
2022-10-07T01:29:25.653Z,100952.60
2022-10-07T01:30:28.530Z,100958.89
2022-10-07T01:33:04.985Z,100961.98
2022-10-07T01:34:08.330Z,100958.83
2022-10-07T01:35:13.010Z,100957.15
2022-10-07T01:36:16.644Z,100953.56
2022-10-07T01:37:19.680Z,100959.75
2022-10-07T01:38:24.252Z,100965.08
2022-10-07T01:39:30.725Z,100955.27
2022-10-07T01:41:57.618Z,100958.33
2022-10-07T01:43:00.917Z,100959.61
2022-10-07T01:44:04.465Z,100963.23
2022-10-07T01:45:08.496Z,100971.23
2022-10-07T01:46:15.211Z,100967.62
2022-10-07T01:47:18.864Z,100960.50
2022-10-07T01:48:21.732Z,100961.36
2022-10-07T01:49:24.784Z,100965.77
2022-10-07T01:50:27.409Z,100967.52
2022-10-07T01:51:32.703Z,100953.49
2022-10-07T01:52:55.487Z,100968.38
2022-10-07T01:54:05.460Z,100970.19
2022-10-07T01:56:44.313Z,100971.53
2022-10-07T01:58:11.596Z,100978.19
2022-10-07T01:59:51.885Z,100973.70
2022-10-07T02:02:50.960Z,100973.38
2022-10-07T02:05:44.911Z,100975.32
2022-10-07T02:07:21.801Z,100982.00
2022-10-07T02:08:33.068Z,100979.41
2022-10-07T02:09:38.959Z,100977.72
2022-10-07T02:11:00.540Z,100983.05
2022-10-07T02:13:29.742Z,100987.97
2022-10-07T02:15:48.884Z,100986.22
2022-10-07T02:18:07.347Z,100989.77
2022-10-07T02:19:14.175Z,100993.72
2022-10-07T02:20:18.362Z,100998.98
2022-10-07T02:21:24.285Z,100998.98
2022-10-07T02:22:27.857Z,101000.73
2022-10-07T02:23:30.644Z,100999.87
2022-10-07T02:24:33.995Z,100998.95
2022-10-07T02:25:40.092Z,100998.89
2022-10-07T02:26:42.809Z,101006.83
2022-10-07T02:27:45.681Z,101005.94
2022-10-07T02:28:50.969Z,101007.69
2022-10-07T02:29:56.548Z,101005.91
2022-10-07T02:30:59.829Z,101011.17
2022-10-07T02:32:03.333Z,101007.62
2022-10-07T02:33:06.838Z,101005.84
2022-10-07T02:34:16.251Z,101011.97
2022-10-07T02:35:26.069Z,101010.19
2022-10-07T02:36:33.627Z,101009.30
2022-10-07T02:37:37.074Z,101017.23
2022-10-07T02:38:42.035Z,101018.98
2022-10-07T02:39:46.648Z,101019.91
2022-10-07T02:40:56.560Z,101014.56
2022-10-07T02:42:03.169Z,101013.65
2022-10-07T02:44:49.344Z,101021.23
2022-10-07T02:47:25.164Z,101017.73
2022-10-07T02:48:33.766Z,101022.57
2022-10-07T02:49:37.063Z,101027.05
2022-10-07T02:50:39.473Z,101019.97
2022-10-07T02:51:47.220Z,101033.30
2022-10-07T02:52:50.769Z,101027.97
2022-10-07T02:53:53.093Z,101027.97
2022-10-07T02:54:57.523Z,101029.72
2022-10-07T02:56:00.318Z,101032.38
2022-10-07T02:57:02.649Z,101034.19
2022-10-07T02:58:06.302Z,101034.19
2022-10-07T02:59:09.409Z,101037.72
2022-10-07T03:00:13.269Z,101038.57
2022-10-07T03:01:20.805Z,101043.91
2022-10-07T03:02:26.755Z,101035.91
2022-10-07T03:03:30.137Z,101041.23
2022-10-07T03:04:34.137Z,101039.46
2022-10-07T03:05:36.600Z,101042.12
2022-10-07T03:06:39.373Z,101039.46
2022-10-07T03:07:41.852Z,101046.58
2022-10-07T03:08:44.326Z,101043.91
2022-10-07T03:09:46.551Z,101040.38
2022-10-07T03:10:48.743Z,101050.20
2022-10-07T03:11:51.190Z,101049.23
2022-10-07T03:12:53.268Z,101051.91
2022-10-07T03:13:55.540Z,101043.84
2022-10-07T03:14:57.647Z,101047.40
2022-10-07T03:16:01.342Z,101053.59
2022-10-07T03:17:04.677Z,101037.78
2022-10-07T03:18:07.274Z,101037.78
2022-10-07T03:19:10.284Z,101049.11
2022-10-07T03:20:17.987Z,101054.45
2022-10-07T03:21:21.464Z,101057.11
2022-10-07T03:22:24.385Z,101052.67
2022-10-07T03:23:28.512Z,101057.11
2022-10-07T03:24:30.796Z,101052.67
2022-10-07T03:25:35.041Z,101057.11
2022-10-07T03:26:37.885Z,101051.78
2022-10-07T03:27:40.593Z,101055.34
2022-10-07T03:28:44.130Z,101056.19
2022-10-07T03:29:46.935Z,101050.86
2022-10-07T03:30:49.775Z,101053.52
2022-10-07T03:31:52.195Z,101061.53
2022-10-07T03:32:55.732Z,101049.11
2022-10-07T03:33:58.389Z,101054.41
2022-10-07T03:35:01.908Z,101059.75
2022-10-07T03:36:05.973Z,101053.52
2022-10-07T03:37:10.159Z,101055.34
2022-10-07T03:38:13.011Z,101058.86
2022-10-07T03:39:15.261Z,101056.19
2022-10-07T03:40:17.569Z,101054.41
2022-10-07T03:41:20.197Z,101062.42
2022-10-07T03:42:24.639Z,101063.34
2022-10-07T03:43:27.656Z,101063.34
2022-10-07T03:44:29.948Z,101057.11
2022-10-07T03:45:32.373Z,101058.00
2022-10-07T03:46:35.337Z,101058.00
2022-10-07T03:47:37.675Z,101057.11
2022-10-07T03:48:40.818Z,101055.34
2022-10-07T03:49:44.262Z,101053.52
2022-10-07T03:50:49.087Z,101056.19
2022-10-07T03:51:52.139Z,101058.86
2022-10-07T03:52:54.476Z,101063.34
2022-10-07T03:53:57.749Z,101070.42
2022-10-07T03:55:02.312Z,101066.00
2022-10-07T03:56:05.051Z,101068.67
2022-10-07T03:57:08.472Z,101064.26
2022-10-07T03:58:10.963Z,101069.59
2022-10-07T03:59:13.306Z,101070.45
2022-10-07T04:00:20.534Z,101075.78
2022-10-07T04:01:24.662Z,101075.78
2022-10-07T04:02:30.135Z,101071.34
2022-10-07T04:03:32.521Z,101078.45
2022-10-07T04:04:34.939Z,101082.07
2022-10-07T04:05:37.190Z,101081.18
2022-10-07T04:06:41.387Z,101079.41
2022-10-07T04:07:46.927Z,101079.41
2022-10-07T04:08:53.393Z,101079.41
2022-10-07T04:09:56.889Z,101085.59
2022-10-07T04:11:02.595Z,101081.18
2022-10-07T04:12:05.155Z,101086.45
2022-10-07T04:13:07.572Z,101082.93
2022-10-07T04:14:10.674Z,101084.73
2022-10-07T04:15:14.722Z,101084.73
2022-10-07T04:16:18.647Z,101082.07
2022-10-07T04:17:21.056Z,101084.73
2022-10-07T04:18:23.435Z,101082.93
2022-10-07T04:19:26.784Z,101082.93
2022-10-07T04:20:29.587Z,101085.59
2022-10-07T04:21:32.141Z,101090.08
2022-10-07T04:22:34.721Z,101082.93
2022-10-07T04:23:38.130Z,101093.59
2022-10-07T04:24:40.647Z,101090.01
2022-10-07T04:25:44.328Z,101091.79
2022-10-07T04:26:49.945Z,101091.79
2022-10-07T04:29:05.515Z,101091.37
2022-10-07T04:30:11.261Z,101091.79
2022-10-07T04:31:13.596Z,101094.45
2022-10-07T04:32:18.690Z,101090.93
2022-10-07T04:33:22.635Z,101095.34
2022-10-07T04:34:25.235Z,101090.93
2022-10-07T04:35:27.326Z,101089.12
2022-10-07T04:36:30.588Z,101102.45
2022-10-07T04:37:35.766Z,101092.68
2022-10-07T04:38:37.982Z,101090.93
2022-10-07T04:39:59.733Z,101096.20
2022-10-07T04:40:46.585Z,101096.20
2022-10-07T04:41:49.608Z,101093.53
2022-10-07T04:42:54.757Z,101103.34
2022-10-07T04:43:58.184Z,101102.45
2022-10-07T04:45:03.474Z,101103.34
2022-10-07T04:46:08.861Z,101103.34
2022-10-07T04:47:13.678Z,101112.14
2022-10-07T04:48:17.247Z,101102.36
2022-10-07T04:49:19.453Z,101115.70
2022-10-07T04:50:23.529Z,101102.36
2022-10-07T04:51:26.917Z,101106.81
2022-10-07T04:52:31.091Z,101113.03
2022-10-07T04:53:35.343Z,101118.37
2022-10-07T04:54:39.254Z,101111.22
2022-10-07T04:56:56.635Z,101112.66
2022-10-07T04:58:01.061Z,101109.54
2022-10-07T04:59:04.066Z,101116.69
2022-10-07T05:00:07.575Z,101110.45
2022-10-07T05:01:10.113Z,101118.46
2022-10-07T05:02:14.639Z,101121.19
2022-10-07T05:03:18.464Z,101120.27
2022-10-07T05:04:20.979Z,101138.08
2022-10-07T05:05:24.144Z,101129.13
2022-10-07T05:06:28.518Z,101126.52
2022-10-07T05:07:31.387Z,101124.75
2022-10-07T05:08:34.978Z,101130.94
2022-10-07T05:09:37.993Z,101122.94
2022-10-07T05:10:42.007Z,101132.75
2022-10-07T05:11:44.138Z,101124.75
2022-10-07T05:12:55.777Z,101130.94
2022-10-07T05:13:56.080Z,101127.41
2022-10-07T05:14:59.897Z,101128.27
2022-10-07T05:16:02.423Z,101134.53
2022-10-07T05:17:04.927Z,101133.61
2022-10-07T05:18:09.445Z,101135.41
2022-10-07T05:19:11.824Z,101136.21
2022-10-07T05:20:15.447Z,101129.13
2022-10-07T05:21:18.532Z,101133.55
2022-10-07T05:22:21.575Z,101137.10
2022-10-07T05:23:28.316Z,101132.63
2022-10-07T05:24:30.482Z,101137.95
2022-10-07T05:25:32.709Z,101141.48
2022-10-07T05:26:35.286Z,101143.30
2022-10-07T05:27:38.170Z,101140.62
2022-10-07T05:28:42.033Z,101148.63
2022-10-07T05:29:45.186Z,101145.10
2022-10-07T05:30:47.991Z,101152.16
2022-10-07T05:31:50.321Z,101151.23
2022-10-07T05:32:54.472Z,101152.98
2022-10-07T05:33:57.109Z,101146.75
2022-10-07T05:35:00.167Z,101148.50
2022-10-07T05:36:05.154Z,101152.98
2022-10-07T05:37:08.479Z,101149.39
2022-10-07T05:38:11.665Z,101158.25
2022-10-07T05:39:14.436Z,101161.78
2022-10-07T05:40:20.012Z,101150.25
2022-10-07T05:41:22.878Z,101161.78
2022-10-07T05:42:25.257Z,101156.45
2022-10-07T05:43:31.196Z,101156.45
2022-10-07T05:44:33.785Z,101159.11
2022-10-07T05:45:36.528Z,101158.25
2022-10-07T05:46:38.922Z,101160.06
2022-10-07T05:47:42.418Z,101160.00
2022-10-07T05:48:45.861Z,101160.92
2022-10-07T05:49:48.222Z,101160.92
2022-10-07T05:51:12.524Z,101160.92
2022-10-07T05:52:15.735Z,101165.34
2022-10-07T05:53:19.135Z,101167.11
2022-10-07T05:54:21.454Z,101166.26
2022-10-07T05:55:23.564Z,101158.25
2022-10-07T05:56:26.253Z,101167.11
2022-10-07T05:57:29.408Z,101170.73
2022-10-07T05:58:32.780Z,101168.06
2022-10-07T05:59:35.587Z,101164.51
2022-10-07T06:00:39.614Z,101159.17
2022-10-07T06:01:42.461Z,101176.07
2022-10-07T06:02:47.771Z,101172.52
2022-10-07T06:03:52.155Z,101179.59
2022-10-07T06:04:56.641Z,101168.06
2022-10-07T06:05:58.990Z,101179.59
2022-10-07T06:07:02.091Z,101173.41
2022-10-07T06:08:04.564Z,101176.92
2022-10-07T06:09:06.913Z,101177.78
2022-10-07T06:10:11.149Z,101176.92
2022-10-07T06:11:15.478Z,101185.78
2022-10-07T06:12:18.248Z,101186.67
2022-10-07T06:13:21.986Z,101187.53
2022-10-07T06:14:25.380Z,101186.67
2022-10-07T06:15:29.624Z,101186.67
2022-10-07T06:16:34.304Z,101190.27
2022-10-07T06:18:55.540Z,101187.20
2022-10-07T06:20:00.367Z,101200.94
2022-10-07T06:21:03.035Z,101192.93
2022-10-07T06:22:06.990Z,101192.93
2022-10-07T06:23:10.271Z,101188.70
2022-10-07T06:24:13.250Z,101188.70
2022-10-07T06:25:17.349Z,101206.27
2022-10-07T06:26:22.198Z,101201.85
2022-10-07T06:27:24.742Z,101199.19
2022-10-07T06:28:35.560Z,101215.19
2022-10-07T06:29:39.871Z,101200.94
2022-10-07T06:30:43.665Z,101202.74
2022-10-07T06:31:47.914Z,101204.52
2022-10-07T06:32:50.951Z,101214.33
2022-10-07T06:33:53.392Z,101210.75
2022-10-07T06:34:56.390Z,101201.85
2022-10-07T06:37:16.724Z,101197.05
2022-10-07T06:38:20.068Z,101203.66
2022-10-07T06:39:22.960Z,101217.00
2022-10-07T06:40:26.540Z,101217.00
2022-10-07T06:41:30.132Z,101216.08
2022-10-07T06:42:48.358Z,101209.00
2022-10-07T06:43:58.391Z,101211.66
2022-10-07T06:45:02.559Z,101217.86
2022-10-07T06:46:05.710Z,101219.67
2022-10-07T06:47:11.644Z,101209.00
2022-10-07T06:48:13.016Z,101213.41
2022-10-07T06:49:16.293Z,101213.41
2022-10-07T06:50:19.649Z,101209.86
2022-10-07T06:51:23.335Z,101210.75
2022-10-07T06:52:25.807Z,101200.28
2022-10-07T06:53:28.462Z,101200.28
2022-10-07T06:54:30.693Z,101216.94
2022-10-07T06:55:33.481Z,101213.41
2022-10-07T06:56:35.967Z,101223.13
2022-10-07T06:57:45.621Z,101221.36
2022-10-07T06:58:43.466Z,101226.69
2022-10-07T06:59:46.785Z,101222.27
2022-10-07T07:00:51.103Z,101224.08
2022-10-07T07:01:55.575Z,101223.13
2022-10-07T07:02:58.984Z,101227.61
2022-10-07T07:04:01.756Z,101224.94
2022-10-07T07:05:06.050Z,101224.94
2022-10-07T07:06:09.744Z,101224.94
2022-10-07T07:07:12.246Z,101231.20
2022-10-07T07:08:15.596Z,101229.42
2022-10-07T07:09:18.419Z,101230.34
2022-10-07T07:10:21.311Z,101222.34
2022-10-07T07:11:26.358Z,101225.00
2022-10-07T07:12:28.836Z,101226.78
2022-10-07T07:13:32.685Z,101226.78
2022-10-07T07:14:35.002Z,101227.73
2022-10-07T07:15:42.874Z,101220.59
2022-10-07T07:16:46.937Z,101223.25
2022-10-07T07:17:49.499Z,101225.06
2022-10-07T07:18:53.120Z,101223.25
2022-10-07T07:19:56.091Z,101225.06
2022-10-07T07:21:02.734Z,101230.45
2022-10-07T07:22:05.656Z,101222.45
2022-10-07T07:23:08.386Z,101223.31
2022-10-07T07:24:11.597Z,101218.04
2022-10-07T07:25:14.124Z,101220.70
2022-10-07T07:26:18.190Z,101221.62
2022-10-07T07:27:21.417Z,101219.81
2022-10-07T07:28:23.809Z,101219.81
2022-10-07T07:29:27.463Z,101219.81
2022-10-07T07:30:32.625Z,101212.70
2022-10-07T07:31:35.495Z,101214.48
2022-10-07T07:32:37.825Z,101219.81
2022-10-07T07:33:39.892Z,101213.63
2022-10-07T07:34:42.145Z,101207.43
2022-10-07T07:35:46.115Z,101219.87
2022-10-07T07:36:50.287Z,101214.54
2022-10-07T07:37:53.221Z,101211.02
2022-10-07T07:40:10.237Z,101207.95
2022-10-07T07:41:12.442Z,101212.83
2022-10-07T07:42:14.900Z,101211.08
2022-10-07T07:43:18.353Z,101205.74
2022-10-07T07:44:20.655Z,101207.55
2022-10-07T07:45:24.244Z,101209.27
2022-10-07T07:46:29.781Z,101204.83
2022-10-07T07:47:33.290Z,101206.53
2022-10-07T07:48:36.094Z,101211.88
2022-10-07T07:49:39.093Z,101205.56
2022-10-07T07:50:42.554Z,101206.45
2022-10-07T07:51:45.333Z,101201.91
2022-10-07T07:52:54.037Z,101209.00
2022-10-07T07:53:55.055Z,101205.41
2022-10-07T07:54:57.360Z,101200.02
2022-10-07T07:55:59.879Z,101201.73
2022-10-07T07:57:02.675Z,101201.73
2022-10-07T07:58:11.083Z,101202.56
2022-10-07T07:59:12.433Z,101212.31
2022-10-07T08:00:15.666Z,101202.56
2022-10-07T08:02:35.430Z,101195.02
2022-10-07T08:03:38.341Z,101192.75
2022-10-07T08:04:41.005Z,101201.64
2022-10-07T08:05:44.001Z,101204.31
2022-10-07T08:06:47.002Z,101198.91
2022-10-07T08:07:49.273Z,101206.02
2022-10-07T08:08:52.753Z,101199.77
2022-10-07T08:09:56.007Z,101200.63
2022-10-07T08:11:12.944Z,101204.19
2022-10-07T08:12:16.526Z,101200.59
2022-10-07T08:13:19.916Z,101204.13
2022-10-07T08:14:23.084Z,101205.94
2022-10-07T08:15:26.589Z,101206.80
2022-10-07T08:16:30.086Z,101200.59
2022-10-07T08:17:33.462Z,101203.27
2022-10-07T08:18:35.703Z,101205.05
2022-10-07T08:19:39.005Z,101206.86
2022-10-07T08:20:41.487Z,101199.71
2022-10-07T08:21:43.732Z,101201.52
2022-10-07T08:22:47.832Z,101197.96
2022-10-07T08:23:55.007Z,101200.63
2022-10-07T08:24:59.322Z,101199.77
2022-10-07T08:26:02.747Z,101201.58
2022-10-07T08:27:05.545Z,101196.24
2022-10-07T08:28:07.807Z,101197.10
2022-10-07T08:29:11.004Z,101197.10
2022-10-07T08:30:14.279Z,101199.83
2022-10-07T08:31:18.647Z,101198.97
2022-10-07T08:32:20.893Z,101199.83
2022-10-07T08:33:23.370Z,101196.30
2022-10-07T08:34:26.496Z,101198.97
2022-10-07T08:35:29.151Z,101196.30
2022-10-07T08:36:31.847Z,101200.75
2022-10-07T08:37:35.732Z,101199.00
2022-10-07T08:38:39.440Z,101207.06
2022-10-07T08:39:42.778Z,101199.13
2022-10-07T08:42:05.016Z,101204.13
2022-10-07T08:43:09.163Z,101199.31
2022-10-07T08:44:21.150Z,101203.81
2022-10-07T08:45:30.402Z,101204.77
2022-10-07T08:46:33.402Z,101203.08
2022-10-07T08:47:41.595Z,101208.47
2022-10-07T08:50:19.184Z,101200.08
2022-10-07T08:51:21.803Z,101200.47
2022-10-07T08:52:31.021Z,101202.30
2022-10-07T08:53:34.801Z,101202.30
2022-10-07T08:54:37.433Z,101203.25
2022-10-07T08:55:42.078Z,101196.11
2022-10-07T08:56:44.784Z,101200.59
2022-10-07T08:57:50.734Z,101213.92
2022-10-07T08:59:09.780Z,101213.92
2022-10-07T09:00:13.211Z,101201.45
2022-10-07T09:01:49.149Z,101205.86
2022-10-07T09:03:26.050Z,101204.17
2022-10-07T09:04:34.082Z,101198.06
2022-10-07T09:05:38.471Z,101198.98
2022-10-07T09:08:04.304Z,101197.92
2022-10-07T09:09:26.789Z,101190.36
2022-10-07T09:10:41.817Z,101192.26
2022-10-07T09:11:45.062Z,101194.98
2022-10-07T09:12:56.242Z,101188.80
2022-10-07T09:15:51.498Z,101196.67
2022-10-07T09:16:55.920Z,101192.69
2022-10-07T09:18:02.024Z,101201.72
2022-10-07T09:19:04.330Z,101197.36
2022-10-07T09:20:13.609Z,101196.56
2022-10-07T09:21:19.133Z,101183.30
2022-10-07T09:23:37.681Z,101189.97
2022-10-07T09:24:40.106Z,101196.56
2022-10-07T09:25:43.127Z,101186.81
2022-10-07T09:26:45.879Z,101190.57
2022-10-07T09:27:48.259Z,101193.37
2022-10-07T09:28:51.880Z,101183.69
2022-10-07T09:29:54.440Z,101193.49
2022-10-07T09:31:00.107Z,101188.19
2022-10-07T09:32:02.721Z,101189.13
2022-10-07T09:33:07.576Z,101183.88
2022-10-07T09:35:31.310Z,101180.05
2022-10-07T09:36:35.372Z,101183.08
2022-10-07T09:37:37.581Z,101191.94
2022-10-07T09:38:45.079Z,101183.94
2022-10-07T09:39:49.837Z,101183.94
2022-10-07T09:40:52.126Z,101174.17
2022-10-07T09:41:54.261Z,101192.71
2022-10-07T09:42:57.670Z,101189.94
2022-10-07T09:44:18.979Z,101172.20
2022-10-07T09:45:24.860Z,101184.66
2022-10-07T09:48:02.346Z,101180.77
2022-10-07T09:49:04.532Z,101183.75
2022-10-07T09:51:30.619Z,101171.92
2022-10-07T09:52:32.930Z,101177.81
2022-10-07T09:53:35.081Z,101178.89
2022-10-07T09:54:37.773Z,101175.62
2022-10-07T09:55:40.580Z,101174.95
2022-10-07T09:56:45.365Z,101172.45
2022-10-07T09:57:54.884Z,101171.83
2022-10-07T09:59:17.486Z,101172.07
2022-10-07T10:01:36.421Z,101173.09
2022-10-07T10:03:57.600Z,101176.13
2022-10-07T10:05:01.387Z,101171.19
2022-10-07T10:06:07.771Z,101168.42
2022-10-07T10:07:20.611Z,101165.71
2022-10-07T10:08:32.371Z,101162.13
2022-10-07T10:09:35.562Z,101170.19
2022-10-07T10:10:37.965Z,101163.33
2022-10-07T10:11:40.121Z,101171.47
2022-10-07T10:12:47.511Z,101159.95
2022-10-07T10:13:50.397Z,101161.70
2022-10-07T10:16:26.736Z,101158.24
2022-10-07T10:17:38.581Z,101155.73
2022-10-07T10:18:41.191Z,101157.33
2022-10-07T10:19:43.619Z,101161.63
2022-10-07T10:20:46.236Z,101165.94
2022-10-07T10:21:56.864Z,101164.97
2022-10-07T10:23:00.269Z,101158.63
2022-10-07T10:24:05.664Z,101155.07
2022-10-07T10:25:10.014Z,101157.73
2022-10-07T10:26:16.413Z,101159.37
2022-10-07T10:27:24.210Z,101161.98
2022-10-07T10:28:47.553Z,101164.56
2022-10-07T10:29:56.467Z,101157.27
2022-10-07T10:31:01.766Z,101153.64
2022-10-07T10:32:16.623Z,101145.65
2022-10-07T10:33:25.179Z,101154.47
2022-10-07T10:34:51.390Z,101139.35
2022-10-07T10:35:57.982Z,101150.86
2022-10-07T10:38:34.164Z,101131.91
2022-10-07T10:39:40.220Z,101141.96
2022-10-07T10:41:08.598Z,101142.80
2022-10-07T10:42:14.523Z,101142.68
2022-10-07T10:47:58.674Z,101142.09
2022-10-07T10:50:57.819Z,101133.00
2022-10-07T10:52:24.846Z,101128.94
2022-10-07T10:53:34.792Z,101142.14
2022-10-07T10:54:49.751Z,101141.17
2022-10-07T10:56:11.560Z,101139.30
2022-10-07T10:58:59.692Z,101137.93
2022-10-07T11:00:11.688Z,101139.13
2022-10-07T11:02:57.600Z,101130.67
2022-10-07T11:04:25.685Z,101129.22
2022-10-07T11:05:36.143Z,101133.58
2022-10-07T11:06:39.590Z,101135.32
2022-10-07T11:09:00.436Z,101132.16
2022-10-07T11:10:21.601Z,101133.40
2022-10-07T11:11:24.900Z,101128.89
2022-10-07T11:12:41.310Z,101127.92
2022-10-07T11:13:47.263Z,101125.19
2022-10-07T11:16:08.109Z,101121.13
2022-10-07T11:17:10.527Z,101129.48
2022-10-07T11:18:26.201Z,101132.03
2022-10-07T11:19:35.990Z,101125.78
2022-10-07T11:20:44.523Z,101123.00
2022-10-07T11:21:52.769Z,101122.02
2022-10-07T11:23:06.337Z,101122.75
2022-10-07T11:24:28.969Z,101119.23
2022-10-07T11:25:36.110Z,101124.50
2022-10-07T11:26:43.704Z,101113.84
2022-10-07T11:27:45.875Z,101120.91
2022-10-07T11:28:49.694Z,101130.72
2022-10-07T11:30:11.161Z,101129.77
2022-10-07T11:31:37.425Z,101119.94
2022-10-07T11:32:49.791Z,101122.54
2022-10-07T11:34:17.309Z,101123.34
2022-10-07T11:35:31.733Z,101115.34
2022-10-07T11:36:50.068Z,101115.34
2022-10-07T11:38:12.285Z,101112.67
2022-10-07T11:39:14.858Z,101118.95
2022-10-07T11:40:18.519Z,101112.67
2022-10-07T11:41:28.080Z,101113.62
2022-10-07T11:42:30.460Z,101121.63
2022-10-07T11:43:36.223Z,101122.48
2022-10-07T11:44:49.036Z,101115.34
2022-10-07T11:45:55.671Z,101118.95
2022-10-07T11:46:58.882Z,101115.34
2022-10-07T11:48:06.836Z,101109.94
2022-10-07T11:49:14.417Z,101120.61
2022-10-07T11:51:39.701Z,101121.13
2022-10-07T11:52:44.775Z,101109.08
2022-10-07T11:53:47.310Z,101106.48
2022-10-07T11:56:24.002Z,101117.54
2022-10-07T11:57:28.972Z,101103.75
2022-10-07T11:58:34.112Z,101106.42
2022-10-07T11:59:44.788Z,101109.02
2022-10-07T12:00:48.309Z,101104.58
2022-10-07T12:01:50.601Z,101099.25
2022-10-07T12:02:54.730Z,101098.36
2022-10-07T12:04:22.040Z,101097.50
2022-10-07T12:05:38.370Z,101096.58
2022-10-07T12:07:18.719Z,101092.16
2022-10-07T12:08:35.035Z,101094.83
2022-10-07T12:10:01.871Z,101094.89
2022-10-07T12:11:17.068Z,101099.34
2022-10-07T12:12:23.804Z,101094.06
2022-10-07T12:13:38.846Z,101087.94
2022-10-07T12:14:42.325Z,101090.67
2022-10-07T12:15:44.487Z,101085.39
2022-10-07T12:16:52.419Z,101082.73
2022-10-07T12:18:05.016Z,101085.39
2022-10-07T12:19:12.055Z,101091.52
2022-10-07T12:20:36.594Z,101071.05
2022-10-07T12:22:02.081Z,101082.55
2022-10-07T12:24:34.056Z,101076.67
2022-10-07T12:25:36.430Z,101086.83
2022-10-07T12:26:40.852Z,101076.16
2022-10-07T12:27:46.587Z,101076.95
2022-10-07T12:28:48.794Z,101083.18
2022-10-07T12:29:58.051Z,101085.78
2022-10-07T12:32:46.028Z,101080.83
2022-10-07T12:34:07.397Z,101079.47
2022-10-07T12:35:33.157Z,101081.18
2022-10-07T12:36:39.441Z,101074.92
2022-10-07T12:38:59.559Z,101076.26
2022-10-07T12:40:15.273Z,101077.59
2022-10-07T12:41:25.233Z,101080.27
2022-10-07T12:42:27.581Z,101074.07
2022-10-07T12:43:39.516Z,101080.27
2022-10-07T12:44:46.034Z,101085.59
2022-10-07T12:45:48.338Z,101085.59
2022-10-07T12:46:57.722Z,101080.27
2022-10-07T12:47:59.886Z,101074.92
2022-10-07T12:49:23.861Z,101074.92
2022-10-07T12:50:26.276Z,101076.67
2022-10-07T12:51:34.573Z,101072.26
2022-10-07T12:52:51.289Z,101073.12
2022-10-07T12:53:54.685Z,101070.45
2022-10-07T12:55:17.565Z,101066.98
2022-10-07T12:56:21.442Z,101065.24
2022-10-07T12:57:33.400Z,101065.24
2022-10-07T12:59:03.222Z,101064.39
2022-10-07T13:00:14.425Z,101063.53
2022-10-07T13:01:44.460Z,101061.84
2022-10-07T13:03:22.914Z,101055.62
2022-10-07T13:04:59.860Z,101055.69
2022-10-07T13:06:18.607Z,101056.61
2022-10-07T13:07:33.957Z,101057.50
2022-10-07T13:08:57.003Z,101056.67
2022-10-07T13:10:27.267Z,101064.73
2022-10-07T13:12:00.309Z,101063.81
2022-10-07T13:14:32.545Z,101055.40
2022-10-07T13:15:53.554Z,101058.48
2022-10-07T13:17:00.470Z,101059.33
2022-10-07T13:18:28.882Z,101061.14
2022-10-07T13:19:49.883Z,101057.50
2022-10-07T13:20:58.983Z,101060.09
2022-10-07T13:22:07.819Z,101055.62
2022-10-07T13:23:24.576Z,101051.11
2022-10-07T13:24:27.095Z,101058.13
2022-10-07T13:25:29.373Z,101045.66
2022-10-07T13:26:32.884Z,101050.06
2022-10-07T13:27:34.982Z,101039.33
2022-10-07T13:28:46.655Z,101046.41
2022-10-07T13:29:49.817Z,101046.28
2022-10-07T13:30:52.198Z,101042.70
2022-10-07T13:32:15.348Z,101038.16
2022-10-07T13:33:29.771Z,101039.90
2022-10-07T13:34:32.378Z,101036.28
2022-10-07T13:35:39.360Z,101034.44
2022-10-07T13:36:43.314Z,101034.44
2022-10-07T13:37:46.034Z,101037.03
2022-10-07T13:38:53.254Z,101036.97